Flight Track Log - Related Links

Times and Time Zones

All times are in EDT time to prevent confusion due to time zone crossing. See the AAY800 flight status page for this flight to view local times or setup timezone preferences in your user account.

Time Position Orientation Groundspeed Altitude Reporting Facility
EDT Latitude Longitude Course Direction KTS MPH feet Rate Location/Type
Sat 09:24:47 AM 27.9000 -82.6833 North 182 209 600  Level Tampa TRACON
Sat 09:27:15 AM 27.8681 -82.7564 244° Southwest 100 115 5,800 2,365 Climbing Jacksonville Center
Sat 09:28:15 AM 27.9392 -82.7306 18° North 149 171 8,800 2,571 Climbing Jacksonville Center
Sat 09:29:14 AM 28.0164 -82.7022 18° North 218 251 10,900 1,600 Climbing Jacksonville Center
Sat 09:30:00 AM 28.5631 -82.6500 North  Level FlightAware Approximate
Sat 09:30:15 AM 28.1081 -82.6644 20° North 294 338 12,000  Level Jacksonville Center
Sat 09:31:15 AM 28.2103 -82.6289 17° North 339 390 14,000 2,218 Climbing Jacksonville Center
Sat 09:32:14 AM 28.3228 -82.6239 North 390 449 16,400 2,150 Climbing Jacksonville Center
Sat 09:33:15 AM 28.4417 -82.6258 359° North 398 458 18,300 1,835 Climbing Jacksonville Center
Sat 09:34:15 AM 28.5650 -82.6278 359° North 417 480 20,100 1,714 Climbing Jacksonville Center
Sat 09:35:14 AM 28.6631 -82.6300 359° North 429 494 21,700 1,750 Climbing Jacksonville Center
Sat 09:36:15 AM 28.8111 -82.6319 359° North 439 505 23,600 1,785 Climbing Jacksonville Center
Sat 09:37:15 AM 28.9386 -82.6364 358° North 446 513 25,300 1,850 Climbing Jacksonville Center
Sat 09:38:15 AM 29.0639 -82.6431 357° North 452 520 27,300 1,700 Climbing Jacksonville Center
Sat 09:39:15 AM 29.1889 -82.6428 360° North 452 520 28,700 1,300 Climbing Jacksonville Center
Sat 09:40:15 AM 29.3122 -82.6472 358° North 447 514 29,900 600 Climbing Jacksonville Center
Sat 09:41:15 AM 29.4353 -82.6494 359° North 437 503 29,900 300 Level Jacksonville Center
Sat 09:42:15 AM 29.5503 -82.6561 357° North 446 513 30,500 900 Climbing Jacksonville Center
Sat 09:43:15 AM 29.6733 -82.6608 358° North 446 513 31,700 1,050 Climbing Jacksonville Center
Sat 09:44:15 AM 29.7967 -82.6628 359° North 439 505 32,600 650 Climbing Jacksonville Center
Sat 09:45:15 AM 29.9219 -82.6672 358° North 439 505 33,000 200 Climbing Jacksonville Center
Sat 09:46:15 AM 30.0575 -82.6669 360° North 439 505 33,000 -50 Level Jacksonville Center
Sat 09:47:15 AM 30.1808 -82.6714 358° North 439 505 32,900 -50 Descending Jacksonville Center
Sat 09:48:15 AM 30.3061 -82.6761 358° North 439 505 32,900 50 Level Jacksonville Center
Sat 09:49:15 AM 30.4292 -82.6758 360° North 439 505 33,000  Climbing Jacksonville Center
Sat 09:50:15 AM 30.5544 -82.6803 358° North 439 505 32,900 -50 Descending Jacksonville Center
Sat 09:51:15 AM 30.6775 -82.6631 North 439 505 32,900  Level Jacksonville Center
Sat 09:52:15 AM 30.7944 -82.6772 354° North 434 499 32,900  Level Jacksonville Center
Sat 09:53:15 AM 30.9136 -82.7014 350° North 434 499 32,900  Level Jacksonville Center
Sat 09:54:15 AM 31.0306 -82.7278 349° North 429 494 32,900 50 Level Jacksonville Center
Sat 09:55:15 AM 31.1456 -82.7517 350° North 429 494 33,000 50 Climbing Jacksonville Center
Sat 09:56:15 AM 31.2644 -82.7808 348° North 429 494 33,000  Level Jacksonville Center
Sat 09:57:15 AM 31.3814 -82.8075 349° North 429 494 33,000  Level Jacksonville Center
Sat 09:58:15 AM 31.4983 -82.8317 350° North 429 494 33,000  Level Jacksonville Center
Sat 09:59:56 AM 31.6828 -82.8772 348° North 423 487 33,000  Level Atlanta Center
Sat 10:00:56 AM 31.7978 -82.9003 350° North 423 487 33,000  Level Atlanta Center
Sat 10:01:56 AM 31.9128 -82.9281 348° North 417 480 33,000  Level Atlanta Center
Sat 10:02:56 AM 32.0278 -82.9561 348° North 417 480 33,000  Level Atlanta Center
Sat 10:03:56 AM 32.1428 -82.9817 349° North 417 480 33,000  Level Atlanta Center
Sat 10:04:56 AM 32.2578 -83.0097 348° North 417 480 33,000 -500 Level Atlanta Center
Sat 10:05:56 AM 32.3728 -83.0378 348° North 410 472 32,000 -500 Descending Atlanta Center
Sat 10:06:56 AM 32.4878 -83.0636 349° North 410 472 32,000  Level Atlanta Center
Sat 10:07:56 AM 32.6008 -83.0919 348° North 410 472 32,000  Level Atlanta Center
Sat 10:08:56 AM 32.7178 -83.1156 350° North 415 478 32,000  Level Atlanta Center
Sat 10:09:56 AM 32.8286 -83.1439 348° North 415 478 32,000  Level Atlanta Center
Sat 10:10:56 AM 32.9458 -83.1725 348° North 415 478 32,000  Level Atlanta Center
Sat 10:11:56 AM 33.0756 -83.2008 350° North 415 478 32,000  Level Atlanta Center
Sat 10:12:56 AM 33.1925 -83.2294 348° North 415 478 32,000  Level Atlanta Center
Sat 10:13:56 AM 33.3075 -83.2508 351° North 420 483 32,000  Level Atlanta Center
Sat 10:14:56 AM 33.4286 -83.2597 356° North 426 490 32,000  Level Atlanta Center
Sat 10:15:56 AM 33.5497 -83.2661 357° North 426 490 32,000  Level Atlanta Center
Sat 10:16:56 AM 33.6686 -83.2725 357° North 426 490 32,000 350 Level Atlanta Center
Sat 10:17:56 AM 33.7897 -83.2814 357° North 426 490 32,700 850 Climbing Atlanta Center
Sat 10:18:56 AM 33.9108 -83.2903 357° North 426 490 33,700 650 Climbing Atlanta Center
Sat 10:19:56 AM 34.0236 -83.2969 357° North 413 475 34,000 150 Climbing Atlanta Center
Sat 10:20:56 AM 34.1386 -83.3033 357° North 403 464 34,000  Level Atlanta Center
Sat 10:21:56 AM 34.2533 -83.3100 357° North 413 475 34,000  Level Atlanta Center
Sat 10:22:56 AM 34.3536 -83.3167 357° North 408 470 34,000  Level Atlanta Center
Sat 10:23:56 AM 34.4706 -83.3233 357° North 408 470 34,000  Level Atlanta Center
Sat 10:24:56 AM 34.5833 -83.3297 357° North 403 464 34,000  Level Atlanta Center
Sat 10:25:56 AM 34.7000 -83.3414 355° North 409 471 34,000  Level Atlanta Center
Sat 10:26:56 AM 34.8128 -83.3481 357° North 409 471 34,000 -400 Level Atlanta Center
Sat 10:27:56 AM 34.9278 -83.3547 357° North 403 464 33,200 -500 Descending Atlanta Center
Sat 10:28:56 AM 35.0403 -83.3614 357° North 403 464 33,000 -100 Descending Atlanta Center
Sat 10:29:56 AM 35.1553 -83.3731 355° North 408 470 33,000  Level Atlanta Center
Sat 10:30:56 AM 35.2867 -83.3772 359° North 414 476 33,000  Level Atlanta Center
Sat 10:31:56 AM 35.4014 -83.3864 356° North 414 476 33,000  Level Atlanta Center
Sat 10:32:56 AM 35.5183 -83.3933 357° North 419 482 33,000  Level Atlanta Center
Sat 10:33:56 AM 35.6372 -83.4000 357° North 419 482 33,000  Level Atlanta Center
Sat 10:34:56 AM 35.7500 -83.4092 356° North 419 482 33,000  Level Atlanta Center
Sat 10:35:56 AM 35.8647 -83.4161 357° North 414 476 33,000  Level Atlanta Center
Sat 10:36:56 AM 35.9817 -83.4256 356° North 414 476 33,000  Level Atlanta Center
Sat 10:37:56 AM 36.0986 -83.4322 357° North 420 483 33,000  Level Atlanta Center
Sat 10:38:45 AM 36.1778 -83.4350 358° North 418 481 33,000  Level Indianapolis Center
Sat 10:39:47 AM 36.3153 -83.4444 357° North 419 482 33,000  Level Indianapolis Center
Sat 10:40:49 AM 36.4339 -83.4522 357° North 421 484 33,000  Level Indianapolis Center
Sat 10:41:51 AM 36.5519 -83.4608 357° North 421 484 33,000  Level Indianapolis Center
Sat 10:42:53 AM 36.6706 -83.4672 358° North 422 486 33,000  Level Indianapolis Center
Sat 10:43:55 AM 36.7889 -83.4758 357° North 422 486 33,000  Level Indianapolis Center
Sat 10:44:57 AM 36.9078 -83.4792 359° North 422 486 33,000  Level Indianapolis Center
Sat 10:45:59 AM 37.0269 -83.4819 359° North 422 486 33,000  Level Indianapolis Center
Sat 10:47:01 AM 37.1664 -83.4883 358° North 423 487 33,000  Level Indianapolis Center
Sat 10:48:03 AM 37.2853 -83.4919 359° North 423 487 33,000  Level Indianapolis Center
Sat 10:49:05 AM 37.4033 -83.4956 359° North 423 487 33,000  Level Indianapolis Center
Sat 10:50:07 AM 37.5222 -83.4997 358° North 423 487 33,000  Level Indianapolis Center
Sat 10:51:09 AM 37.6408 -83.5031 359° North 423 487 33,000  Level Indianapolis Center
Sat 10:52:11 AM 37.7586 -83.5075 358° North 423 487 33,000  Level Indianapolis Center
Sat 10:53:13 AM 37.8947 -83.5136 358° North 422 486 33,000  Level Indianapolis Center
Sat 10:54:15 AM 38.0128 -83.5183 358° North 422 486 33,000  Level Indianapolis Center
Sat 10:55:17 AM 38.1306 -83.5206 359° North 422 486 33,000  Level Indianapolis Center
Sat 10:56:19 AM 38.2481 -83.5250 358° North 422 486 33,000  Level Indianapolis Center
Sat 10:57:21 AM 38.3653 -83.5283 359° North 421 484 33,000  Level Indianapolis Center
Sat 10:58:23 AM 38.4825 -83.5347 358° North 421 484 33,000  Level Indianapolis Center
Sat 10:59:25 AM 38.6197 -83.5378 359° North 421 484 33,000  Level Indianapolis Center
Sat 11:00:26 AM 38.7256 -83.5411 359° North 421 484 33,000  Level Indianapolis Center
Sat 11:01:28 AM 38.8433 -83.5458 358° North 421 484 33,000  Level Indianapolis Center
Sat 11:02:30 AM 38.9850 -83.5492 359° North 422 486 33,000  Level Indianapolis Center
Sat 11:03:32 AM 39.1036 -83.5517 359° North 424 488 33,000 -97 Level Indianapolis Center
Sat 11:04:34 AM 39.2217 -83.5572 358° North 424 488 32,800 -677 Descending Indianapolis Center
Sat 11:05:36 AM 39.3397 -83.5603 359° North 424 488 31,600 -1,161 Descending Indianapolis Center
Sat 11:06:38 AM 39.4583 -83.5644 358° North 424 488 30,400 -1,161 Descending Indianapolis Center
Sat 11:07:40 AM 39.5781 -83.5686 358° North 429 494 29,200 -1,161 Descending Indianapolis Center
Sat 11:08:42 AM 39.7003 -83.5728 358° North 430 495 28,000 -1,220 Descending Indianapolis Center
Sat 11:09:43 AM 39.8228 -83.5783 358° North 433 498 26,700 -1,220 Descending Indianapolis Center
Sat 11:10:45 AM 39.9447 -83.5822 359° North 426 490 25,500 -1,306 Descending Indianapolis Center
Sat 11:11:47 AM 40.0831 -83.5864 359° North 414 476 24,000 -1,306 Descending Indianapolis Center
Sat 11:12:49 AM 40.1972 -83.5908 358° North 413 475 22,800 -1,161 Descending Indianapolis Center
Sat 11:13:51 AM 40.3089 -83.5950 358° North 406 467 21,600 -1,161 Descending Indianapolis Center
Sat 11:14:53 AM 40.4194 -83.5992 358° North 401 461 20,400 -774 Descending Indianapolis Center
Sat 11:15:55 AM 40.5297 -83.6031 358° North 400 460 20,000 -194 Descending Indianapolis Center
Sat 11:16:57 AM 40.6378 -83.6075 358° North 393 452 20,000  Level Indianapolis Center
Sat 11:17:29 AM 40.7017 -83.6097 358° North 392 451 20,000 -383 Level Cleveland Center
Sat 11:18:31 AM 40.8100 -83.6144 358° North 390 449 19,400 -1,065 Descending Cleveland Center
Sat 11:19:33 AM 40.9192 -83.6172 359° North 391 450 17,800 -2,049 Descending Cleveland Center
Sat 11:20:34 AM 41.0264 -83.6211 358° North 389 448 15,200 -2,829 Descending Cleveland Center
Sat 11:21:36 AM 41.1508 -83.6258 358° North 379 436 12,000 -2,177 Descending Cleveland Center
Sat 11:22:38 AM 41.2494 -83.6033 10° North 371 427 10,700 -927 Descending Cleveland Center
Sat 11:23:39 AM 41.3278 -83.5439 30° Northeast 333 383 10,100 -829 Descending Cleveland Center
Sat 11:24:41 AM 41.4019 -83.4892 29° Northeast 314 361 9,000 -1,306 Descending Cleveland Center
Sat 11:25:43 AM 41.4747 -83.4392 27° Northeast 299 344 7,400 -1,610 Descending Cleveland Center
Sat 11:26:44 AM 41.5500 -83.4331 North 290 334 5,700 -1,610 Descending Cleveland Center
Sat 11:27:46 AM 41.6242 -83.4700 340° North 287 330 4,100 -1,317 Descending Cleveland Center
Sat 11:28:47 AM 41.7006 -83.5067 340° North 249 287 3,000 -488 Descending Cleveland Center
Sat 11:29:49 AM 41.7003 -83.5611 270° West 186 214 3,100  Climbing Cleveland Center
Sat 11:30:51 AM 41.6733 -83.6050 231° Southwest 158 182 3,000 -98 Descending Cleveland Center
Sat 11:31:52 AM 41.6500 -83.6436 231° Southwest 147 169 2,900 -244 Descending Cleveland Center
Sat 11:32:54 AM 41.6289 -83.6811 233° Southwest 135 155 2,500 -537 Descending Cleveland Center
Sat 11:33:55 AM 41.6128 -83.7264 245° Southwest 131 151 1,800 -390 Descending Cleveland Center
Sat 11:34:57 AM 41.5972 -83.7711 245° Southwest 131 151 1,700 -97 Descending Cleveland Center

Login

Don't have an account? Register now (free) for customized features, flight alerts, and more!